Time;durP1;ratioP1;P1;durP2;ratioP2;P2;SDS_P1;SDS_P2;PMS_P1;PMS_P2;Temp;Humidity;BMP_temperature;BMP_pressure;BME280_temperature;BME280_humidity;BME280_pressure;Samples;Min_cycle;Max_cycle;Signal;HPM_P1;HPM_P2
2020/12/14 00:00:59;;;;;;;20.70;3.40;;;11.10;99.90;;;;;;5077064;28;20028;-60
2020/12/14 00:03:25;;;;;;;20.30;3.55;;;11.20;99.90;;;;;;5074615;28;20043;-62
2020/12/14 00:05:51;;;;;;;26.05;3.80;;;11.10;99.90;;;;;;5081893;28;20036;-61
2020/12/14 00:08:17;;;;;;;27.05;4.38;;;11.10;99.90;;;;;;5073530;28;20028;-61
2020/12/14 00:10:42;;;;;;;24.67;3.95;;;11.10;99.90;;;;;;5075070;28;20049;-62
2020/12/14 00:13:08;;;;;;;20.10;3.55;;;11.10;99.90;;;;;;5064853;28;20039;-60
2020/12/14 00:15:34;;;;;;;30.02;5.40;;;11.10;99.90;;;;;;5072261;28;20100;-61
2020/12/14 00:18:00;;;;;;;30.02;3.92;;;11.10;99.90;;;;;;5072710;28;20123;-62
2020/12/14 00:20:25;;;;;;;21.08;3.90;;;11.00;99.90;;;;;;5072889;28;20471;-61
2020/12/14 00:22:51;;;;;;;20.25;3.17;;;11.00;99.90;;;;;;5078634;28;20137;-63
2020/12/14 00:25:17;;;;;;;19.33;3.75;;;11.00;99.90;;;;;;5090368;28;20028;-63
2020/12/14 00:27:43;;;;;;;24.60;4.03;;;11.00;99.90;;;;;;5071237;28;20028;-61
2020/12/14 00:30:09;;;;;;;25.13;4.13;;;11.10;99.90;;;;;;5071214;28;20425;-61
2020/12/14 00:32:35;;;;;;;22.30;3.53;;;11.10;99.90;;;;;;5085849;28;20458;-62
2020/12/14 00:35:01;;;;;;;19.98;3.30;;;11.10;99.90;;;;;;5073694;28;20107;-61
2020/12/14 00:37:26;;;;;;;29.52;4.50;;;11.00;99.90;;;;;;5070475;28;20030;-63
2020/12/14 00:39:52;;;;;;;26.75;4.65;;;11.00;99.90;;;;;;5088353;28;20033;-61
2020/12/14 00:42:19;;;;;;;27.98;4.30;;;11.00;99.90;;;;;;5082553;28;20027;-62
2020/12/14 00:44:44;;;;;;;27.20;4.45;;;10.90;99.90;;;;;;5079709;28;20028;-62
2020/12/14 00:47:10;;;;;;;30.65;4.80;;;10.90;99.90;;;;;;5065551;28;20043;-62
2020/12/14 00:49:36;;;;;;;30.02;4.45;;;10.90;99.90;;;;;;5072286;28;20068;-62
2020/12/14 00:52:04;;;;;;;31.05;4.93;;;10.90;99.90;;;;;;5076181;28;20142;-61
2020/12/14 00:54:31;;;;;;;31.63;4.60;;;10.80;99.90;;;;;;5074342;28;20063;-61
2020/12/14 00:56:57;;;;;;;35.78;4.55;;;10.80;99.90;;;;;;5082911;28;20071;-59
2020/12/14 00:59:23;;;;;;;35.95;4.82;;;10.80;99.90;;;;;;5071433;28;20024;-61
2020/12/14 01:01:52;;;;;;;30.63;4.07;;;10.70;99.90;;;;;;5052695;28;20037;-59
2020/12/14 01:04:19;;;;;;;26.45;4.28;;;10.70;99.90;;;;;;5087145;28;20118;-62
2020/12/14 01:06:45;;;;;;;25.63;4.32;;;10.70;99.90;;;;;;5083407;28;20090;-59
2020/12/14 01:09:11;;;;;;;25.35;4.10;;;10.70;99.90;;;;;;5052774;28;20048;-59
2020/12/14 01:11:36;;;;;;;23.48;4.05;;;10.70;99.90;;;;;;5084546;28;20048;-60
2020/12/14 01:14:02;;;;;;;28.35;4.80;;;10.60;99.90;;;;;;5087438;28;20489;-60
2020/12/14 01:16:28;;;;;;;32.03;4.50;;;10.60;99.90;;;;;;5081203;28;20404;-61
2020/12/14 01:18:53;;;;;;;22.98;4.70;;;10.60;99.90;;;;;;5091866;28;20111;-61
2020/12/14 01:21:23;;;;;;;31.38;4.70;;;10.60;99.90;;;;;;5071145;28;20520;-59
2020/12/14 01:23:49;;;;;;;26.55;4.45;;;10.50;99.90;;;;;;5071451;28;20122;-61
2020/12/14 01:26:16;;;;;;;35.58;5.20;;;10.50;99.90;;;;;;5083486;28;20024;-59
2020/12/14 01:28:42;;;;;;;30.55;4.63;;;10.50;99.90;;;;;;5081679;28;20024;-60
2020/12/14 01:31:07;;;;;;;35.25;4.47;;;10.50;99.90;;;;;;5079817;28;20103;-61
2020/12/14 01:33:33;;;;;;;31.35;5.05;;;10.50;99.90;;;;;;5077951;28;20077;-60
2020/12/14 01:35:59;;;;;;;26.88;5.13;;;10.50;99.90;;;;;;5090095;28;20027;-61
2020/12/14 01:38:24;;;;;;;22.60;4.22;;;10.50;99.90;;;;;;5077884;28;20097;-59
2020/12/14 01:40:52;;;;;;;29.60;4.50;;;10.50;99.90;;;;;;5063359;28;20025;-60
2020/12/14 01:43:17;;;;;;;27.85;5.20;;;10.50;99.90;;;;;;5081360;28;20039;-61
2020/12/14 01:45:43;;;;;;;31.48;4.70;;;10.40;99.90;;;;;;5083837;28;20036;-61
2020/12/14 01:48:11;;;;;;;29.02;4.50;;;10.50;99.90;;;;;;5058196;28;20081;-60
2020/12/14 01:50:37;;;;;;;29.73;4.90;;;10.50;99.90;;;;;;5082394;28;20078;-61
2020/12/14 01:53:06;;;;;;;39.88;4.50;;;10.50;99.90;;;;;;5064899;28;20029;-60
2020/12/14 01:55:37;;;;;;;31.98;5.18;;;10.60;99.90;;;;;;5074782;28;20564;-60
2020/12/14 01:58:04;;;;;;;33.40;5.28;;;10.50;99.90;;;;;;5071105;28;20414;-60
2020/12/14 02:00:30;;;;;;;30.42;4.80;;;10.50;99.90;;;;;;5076539;28;20074;-59
2020/12/14 02:02:55;;;;;;;33.50;4.53;;;10.60;99.90;;;;;;5073660;28;20032;-61
2020/12/14 02:05:21;;;;;;;31.92;5.55;;;10.60;99.90;;;;;;5071961;28;20048;-61
2020/12/14 02:07:47;;;;;;;37.60;5.00;;;10.60;99.90;;;;;;5073539;28;20044;-60
2020/12/14 02:10:13;;;;;;;33.60;5.15;;;10.60;99.90;;;;;;5066834;28;20052;-61
2020/12/14 02:12:41;;;;;;;26.92;4.80;;;10.60;99.90;;;;;;5064689;28;20032;-60
2020/12/14 02:15:06;;;;;;;31.48;4.82;;;10.70;99.90;;;;;;5062242;28;20036;-60
2020/12/14 02:17:32;;;;;;;29.95;4.97;;;10.60;99.90;;;;;;5068729;28;20855;-61
2020/12/14 02:19:58;;;;;;;25.42;4.47;;;10.60;99.90;;;;;;5083088;28;20042;-60
2020/12/14 02:22:25;;;;;;;33.47;5.22;;;10.70;99.90;;;;;;5069781;28;20107;-59
2020/12/14 02:24:56;;;;;;;20.38;4.10;;;10.70;99.90;;;;;;5086332;28;20031;-59
2020/12/14 02:27:23;;;;;;;37.42;5.38;;;10.70;99.90;;;;;;5072735;28;20025;-61
2020/12/14 02:29:49;;;;;;;32.85;5.25;;;10.70;99.90;;;;;;5052455;28;20063;-60
2020/12/14 02:32:16;;;;;;;26.85;4.18;;;10.70;99.90;;;;;;5087491;28;20024;-60
2020/12/14 02:34:43;;;;;;;37.03;5.32;;;10.70;99.90;;;;;;5078629;28;20024;-60
2020/12/14 02:37:13;;;;;;;26.65;4.65;;;10.70;99.90;;;;;;5082199;28;20028;-61
2020/12/14 02:39:39;;;;;;;43.10;5.25;;;10.70;99.90;;;;;;5080089;28;20032;-62
2020/12/14 02:42:11;;;;;;;39.60;5.20;;;10.70;99.90;;;;;;5082773;28;20032;-61
2020/12/14 02:44:36;;;;;;;37.97;5.18;;;10.70;99.90;;;;;;5071022;28;20036;-60
2020/12/14 02:47:03;;;;;;;34.05;4.53;;;10.70;99.90;;;;;;5072231;28;20029;-62
2020/12/14 02:49:29;;;;;;;33.00;5.57;;;10.70;99.90;;;;;;5075507;28;20052;-61
2020/12/14 02:51:55;;;;;;;34.50;5.82;;;10.70;99.90;;;;;;5071978;28;20135;-61
2020/12/14 02:54:21;;;;;;;34.35;4.85;;;10.80;99.90;;;;;;5054285;28;20534;-62
2020/12/14 02:56:46;;;;;;;34.53;5.70;;;10.80;99.90;;;;;;5057099;28;20437;-59
2020/12/14 02:59:13;;;;;;;33.13;4.28;;;10.80;99.90;;;;;;5054351;28;20439;-60
2020/12/14 03:01:39;;;;;;;30.02;4.75;;;10.80;99.90;;;;;;5064751;28;20037;-60
2020/12/14 03:04:05;;;;;;;32.33;4.88;;;10.80;99.90;;;;;;5056094;28;20067;-60
2020/12/14 03:06:31;;;;;;;30.23;4.10;;;10.90;99.90;;;;;;5087715;28;20071;-60
2020/12/14 03:08:57;;;;;;;26.20;4.35;;;10.90;99.90;;;;;;5090634;28;20052;-61
2020/12/14 03:11:23;;;;;;;32.25;5.90;;;10.90;99.90;;;;;;5087951;28;20121;-60
2020/12/14 03:13:49;;;;;;;30.13;4.82;;;10.90;99.90;;;;;;5060442;28;20028;-61
2020/12/14 03:16:16;;;;;;;31.33;4.85;;;10.90;99.90;;;;;;5069985;28;20048;-60
2020/12/14 03:18:42;;;;;;;23.15;4.05;;;10.90;99.90;;;;;;5063058;28;20167;-61
2020/12/14 03:21:08;;;;;;;32.60;4.00;;;10.90;99.90;;;;;;5065811;28;20104;-61
2020/12/14 03:23:34;;;;;;;33.60;4.78;;;10.90;99.90;;;;;;5069329;28;20037;-59
2020/12/14 03:26:00;;;;;;;33.42;4.82;;;10.90;99.90;;;;;;5070818;28;20033;-59
2020/12/14 03:28:26;;;;;;;28.52;4.30;;;10.90;99.90;;;;;;5054771;28;20502;-60
2020/12/14 03:30:52;;;;;;;23.08;3.70;;;10.90;99.90;;;;;;5072377;28;20374;-60
2020/12/14 03:33:18;;;;;;;29.17;4.40;;;10.90;99.90;;;;;;5081133;28;20029;-60
2020/12/14 03:35:45;;;;;;;25.25;3.92;;;10.90;99.90;;;;;;5070514;28;20037;-60
2020/12/14 03:38:11;;;;;;;24.83;4.35;;;10.90;99.90;;;;;;5066073;28;20149;-60
2020/12/14 03:40:37;;;;;;;29.55;4.18;;;10.90;99.90;;;;;;5079766;28;20038;-61
2020/12/14 03:43:03;;;;;;;33.67;5.53;;;10.90;99.90;;;;;;5073240;28;20475;-61
2020/12/14 03:45:28;;;;;;;30.73;5.18;;;10.90;99.90;;;;;;5074637;28;20115;-61
2020/12/14 03:47:54;;;;;;;25.95;4.13;;;10.90;99.90;;;;;;5084034;28;20118;-60
2020/12/14 03:50:20;;;;;;;28.55;4.20;;;10.90;99.90;;;;;;5086529;28;20112;-61
2020/12/14 03:52:45;;;;;;;33.97;4.32;;;10.90;99.90;;;;;;5068552;28;20246;-60
2020/12/14 03:55:11;;;;;;;30.75;4.40;;;11.00;99.90;;;;;;5080698;28;20115;-61
2020/12/14 03:57:37;;;;;;;29.27;4.15;;;11.00;99.90;;;;;;5059449;28;20040;-60
2020/12/14 04:00:04;;;;;;;29.08;4.35;;;11.00;99.90;;;;;;5089171;28;20100;-60
2020/12/14 04:02:30;;;;;;;35.05;4.78;;;11.00;99.90;;;;;;5073417;28;20358;-62
2020/12/14 04:04:55;;;;;;;26.48;4.13;;;11.10;99.90;;;;;;5068730;28;20068;-60
2020/12/14 04:07:21;;;;;;;26.02;3.97;;;11.10;99.90;;;;;;5075313;28;20044;-60
2020/12/14 04:09:47;;;;;;;30.73;4.53;;;11.10;99.90;;;;;;5075412;28;20068;-61
2020/12/14 04:12:13;;;;;;;26.85;4.75;;;11.10;99.90;;;;;;5092217;28;20048;-61
2020/12/14 04:14:39;;;;;;;30.02;4.90;;;11.10;99.90;;;;;;5062965;28;20043;-61
2020/12/14 04:17:05;;;;;;;44.85;5.43;;;11.10;99.90;;;;;;5075480;28;20029;-61
2020/12/14 04:19:31;;;;;;;10.02;1.98;;;11.20;99.90;;;;;;5085833;28;20028;-61
2020/12/14 04:21:59;;;;;;;8.55;1.48;;;10.90;99.90;;;;;;5074577;28;20035;-61
2020/12/14 04:24:26;;;;;;;7.43;1.38;;;10.60;99.90;;;;;;5071959;28;20036;-60
2020/12/14 04:26:52;;;;;;;7.25;1.02;;;10.40;99.90;;;;;;5057219;28;20041;-60
2020/12/14 04:29:19;;;;;;;9.80;1.30;;;10.30;99.90;;;;;;5072301;28;20470;-61
2020/12/14 04:31:45;;;;;;;6.65;1.10;;;10.20;99.90;;;;;;5074538;28;20021;-60
2020/12/14 04:34:10;;;;;;;4.47;0.80;;;10.10;99.90;;;;;;5076387;28;20032;-60
2020/12/14 04:36:36;;;;;;;5.55;0.93;;;10.10;99.90;;;;;;5084107;28;20040;-60
2020/12/14 04:39:03;;;;;;;5.20;1.15;;;10.00;99.90;;;;;;5071756;28;20028;-59
2020/12/14 04:41:29;;;;;;;7.88;1.33;;;10.00;99.90;;;;;;5066347;28;20390;-61
2020/12/14 04:43:56;;;;;;;2.50;0.73;;;10.00;99.90;;;;;;5065223;28;20047;-61
2020/12/14 04:46:25;;;;;;;7.07;1.00;;;10.00;99.90;;;;;;5072040;28;20032;-61
2020/12/14 04:48:51;;;;;;;5.93;1.17;;;10.00;99.90;;;;;;5072221;28;20144;-60
2020/12/14 04:51:18;;;;;;;4.00;0.90;;;10.00;99.90;;;;;;5072866;28;20060;-61
2020/12/14 04:53:45;;;;;;;5.32;1.20;;;9.90;99.90;;;;;;5071827;28;20055;-61
2020/12/14 04:56:17;;;;;;;2.00;0.75;;;10.00;99.90;;;;;;5072556;28;20039;-60
2020/12/14 04:58:43;;;;;;;6.68;1.23;;;9.90;99.90;;;;;;5052713;28;20024;-59
2020/12/14 05:01:10;;;;;;;4.25;1.25;;;9.90;99.90;;;;;;5062719;28;20025;-62
2020/12/14 05:03:35;;;;;;;5.88;1.70;;;9.90;99.90;;;;;;5060047;28;20029;-62
2020/12/14 05:06:01;;;;;;;7.13;1.02;;;9.90;99.90;;;;;;5068514;28;20054;-60
2020/12/14 05:08:29;;;;;;;6.38;1.10;;;9.90;99.90;;;;;;5089734;28;20057;-60
2020/12/14 05:10:55;;;;;;;4.55;1.20;;;9.90;99.90;;;;;;5089037;28;20079;-60
2020/12/14 05:13:27;;;;;;;6.00;1.02;;;9.90;99.90;;;;;;5079928;28;20024;-60
2020/12/14 05:15:54;;;;;;;4.55;1.17;;;9.90;99.90;;;;;;5071910;28;20032;-60
2020/12/14 05:18:23;;;;;;;4.30;0.95;;;9.90;99.90;;;;;;5061404;28;20029;-60
2020/12/14 05:21:04;;;;;;;6.13;1.00;;;9.90;99.90;;;;;;5069698;28;20044;-60
2020/12/14 05:23:30;;;;;;;4.22;0.80;;;9.90;99.90;;;;;;5078317;28;20089;-61
2020/12/14 05:26:11;;;;;;;4.60;1.05;;;9.90;99.90;;;;;;5081633;28;20471;-59
2020/12/14 05:28:37;;;;;;;3.13;0.88;;;9.90;99.90;;;;;;5054510;28;20033;-60
2020/12/14 05:31:03;;;;;;;2.83;0.88;;;9.80;99.90;;;;;;5070545;28;20035;-59
2020/12/14 05:33:30;;;;;;;5.22;1.20;;;9.80;99.90;;;;;;5071674;28;20020;-60
2020/12/14 05:35:56;;;;;;;5.32;1.00;;;9.80;99.90;;;;;;5052712;28;20120;-61
2020/12/14 05:38:30;;;;;;;5.90;0.98;;;9.70;99.90;;;;;;5078369;28;20099;-61
2020/12/14 05:41:00;;;;;;;3.17;1.13;;;9.70;99.90;;;;;;5073378;28;20416;-61
2020/12/14 05:43:30;;;;;;;5.65;0.95;;;9.60;99.90;;;;;;5071244;28;20119;-61
2020/12/14 05:46:09;;;;;;;7.05;1.05;;;9.50;99.90;;;;;;5087274;28;20039;-59
2020/12/14 05:48:35;;;;;;;5.90;1.35;;;9.40;99.90;;;;;;5074019;28;20033;-61
2020/12/14 05:51:04;;;;;;;3.47;1.02;;;9.40;99.90;;;;;;5070763;28;20036;-60
2020/12/14 05:53:49;;;;;;;12.88;1.50;;;9.40;99.90;;;;;;5063433;28;20149;-59
2020/12/14 05:56:17;;;;;;;8.02;1.50;;;9.40;99.90;;;;;;5062909;28;20025;-59
2020/12/14 05:58:43;;;;;;;6.22;1.30;;;9.40;99.90;;;;;;5055097;28;20382;-60
2020/12/14 06:01:09;;;;;;;10.55;1.85;;;9.50;99.90;;;;;;5071940;28;20020;-60
2020/12/14 06:03:36;;;;;;;14.98;2.63;;;9.40;99.90;;;;;;5071148;28;20044;-61
2020/12/14 06:06:08;;;;;;;5.75;1.50;;;9.40;99.90;;;;;;5076119;28;20104;-60
2020/12/14 06:08:34;;;;;;;9.38;1.80;;;9.40;99.90;;;;;;5081943;28;20024;-61
2020/12/14 06:11:04;;;;;;;10.60;2.05;;;9.40;99.90;;;;;;5070511;28;20421;-61
2020/12/14 06:13:31;;;;;;;7.28;1.65;;;9.50;99.90;;;;;;5054760;28;20033;-60
2020/12/14 06:16:03;;;;;;;10.68;1.75;;;9.40;99.90;;;;;;5059961;28;20025;-59
2020/12/14 06:18:33;;;;;;;10.45;2.17;;;9.50;99.90;;;;;;5070582;28;20502;-61
2020/12/14 06:21:00;;;;;;;10.63;1.70;;;9.50;99.90;;;;;;5088231;28;20020;-60
2020/12/14 06:23:37;;;;;;;13.20;2.00;;;9.50;99.90;;;;;;5081881;28;20301;-60
2020/12/14 06:26:06;;;;;;;11.35;2.15;;;9.50;99.90;;;;;;5079233;28;20122;-60
2020/12/14 06:28:34;;;;;;;11.25;2.30;;;9.50;99.90;;;;;;5065434;28;20800;-59
2020/12/14 06:31:00;;;;;;;13.02;2.03;;;9.50;99.90;;;;;;5069587;28;20063;-60
2020/12/14 06:33:40;;;;;;;15.82;2.50;;;9.40;99.90;;;;;;5071520;28;20032;-59
2020/12/14 06:36:19;;;;;;;12.65;1.90;;;9.40;99.90;;;;;;5057940;28;20043;-59
2020/12/14 06:38:46;;;;;;;10.43;1.92;;;9.40;99.90;;;;;;5063404;28;20394;-60
2020/12/14 06:41:16;;;;;;;16.33;2.45;;;9.40;99.90;;;;;;5055123;28;20028;-60
2020/12/14 06:43:44;;;;;;;11.52;2.25;;;9.40;99.90;;;;;;5052396;28;20376;-59
2020/12/14 06:46:10;;;;;;;18.63;2.47;;;9.30;99.90;;;;;;5071102;28;20386;-60
2020/12/14 06:48:41;;;;;;;14.50;2.90;;;9.30;99.90;;;;;;5063017;28;20029;-60
2020/12/14 06:51:12;;;;;;;12.13;2.45;;;9.30;99.90;;;;;;5071226;28;20110;-61
2020/12/14 06:53:38;;;;;;;14.88;2.35;;;9.30;99.90;;;;;;5072986;28;20029;-60
2020/12/14 06:56:03;;;;;;;23.67;3.33;;;9.30;99.90;;;;;;5072717;28;20039;-59
2020/12/14 06:58:33;;;;;;;22.63;3.20;;;9.30;99.90;;;;;;5063304;28;20382;-59
2020/12/14 07:00:59;;;;;;;23.55;3.05;;;9.30;99.90;;;;;;5075682;28;20032;-61
2020/12/14 07:03:35;;;;;;;17.70;2.88;;;9.40;99.90;;;;;;5067886;28;20552;-60
2020/12/14 07:06:02;;;;;;;22.23;3.13;;;9.50;99.90;;;;;;5074761;28;20031;-60
2020/12/14 07:08:37;;;;;;;21.55;3.28;;;9.50;99.90;;;;;;5069784;28;20040;-59
2020/12/14 07:11:14;;;;;;;26.90;4.05;;;9.50;99.90;;;;;;5094789;28;20113;-59
2020/12/14 07:13:41;;;;;;;17.92;3.20;;;9.50;99.90;;;;;;5083748;28;20028;-60
2020/12/14 07:16:08;;;;;;;24.15;3.47;;;9.50;99.90;;;;;;5078109;28;20428;-60
2020/12/14 07:18:34;;;;;;;21.15;2.92;;;9.50;99.90;;;;;;5074641;28;20035;-59
2020/12/14 07:21:07;;;;;;;21.67;3.45;;;9.50;99.90;;;;;;5074288;28;20024;-59
2020/12/14 07:23:39;;;;;;;26.48;3.85;;;9.50;99.90;;;;;;5055066;28;20032;-59
2020/12/14 07:26:06;;;;;;;25.63;4.10;;;9.60;99.90;;;;;;5063857;28;20032;-59
2020/12/14 07:28:36;;;;;;;24.90;3.50;;;9.60;99.90;;;;;;5083224;28;20130;-63
2020/12/14 07:31:13;;;;;;;25.45;3.20;;;9.50;99.90;;;;;;5074789;28;20028;-59
2020/12/14 07:33:40;;;;;;;23.27;3.78;;;9.50;99.90;;;;;;5073506;28;20111;-59
2020/12/14 07:36:10;;;;;;;30.85;5.88;;;9.50;99.90;;;;;;5071586;28;20044;-60
2020/12/14 07:38:53;;;;;;;28.42;4.18;;;9.50;99.90;;;;;;5074459;28;20056;-60
2020/12/14 07:41:20;;;;;;;28.52;4.55;;;9.50;99.90;;;;;;5067783;28;20033;-60
2020/12/14 07:43:50;;;;;;;28.90;4.30;;;9.50;99.90;;;;;;5079092;28;20036;-59
2020/12/14 07:46:23;;;;;;;22.77;3.13;;;9.50;99.90;;;;;;5067345;28;20601;-60
2020/12/14 07:48:57;;;;;;;37.95;4.38;;;9.50;99.90;;;;;;5067537;28;20429;-58
2020/12/14 07:51:24;;;;;;;27.42;4.28;;;9.50;99.90;;;;;;5071117;28;20029;-58
2020/12/14 07:53:51;;;;;;;23.73;4.03;;;9.50;99.90;;;;;;5073682;28;20032;-61
2020/12/14 07:56:18;;;;;;;29.33;4.53;;;9.50;99.90;;;;;;5079027;28;20050;-59
2020/12/14 07:58:45;;;;;;;28.73;4.55;;;9.60;99.90;;;;;;5081582;28;20142;-60
2020/12/14 08:01:18;;;;;;;25.77;4.50;;;9.60;99.90;;;;;;5060375;28;20502;-60
2020/12/14 08:03:45;;;;;;;24.35;4.68;;;9.70;99.90;;;;;;5079677;28;20539;-58
2020/12/14 08:06:20;;;;;;;28.98;4.38;;;9.70;99.90;;;;;;5080662;28;20031;-59
2020/12/14 08:08:49;;;;;;;35.03;4.75;;;9.70;99.90;;;;;;5072560;28;20036;-59
2020/12/14 08:11:20;;;;;;;30.58;4.53;;;9.70;99.90;;;;;;5076869;28;20449;-59
2020/12/14 08:13:51;;;;;;;31.77;4.30;;;9.70;99.90;;;;;;5082370;28;20595;-62
2020/12/14 08:16:20;;;;;;;33.38;5.05;;;9.70;99.90;;;;;;5053206;28;20028;-59
2020/12/14 08:18:50;;;;;;;33.08;4.57;;;9.70;99.90;;;;;;5061936;28;20079;-61
2020/12/14 08:21:25;;;;;;;28.00;4.35;;;9.70;99.90;;;;;;5054485;28;20041;-59
2020/12/14 08:23:54;;;;;;;34.58;5.57;;;9.70;99.90;;;;;;5055295;28;20054;-59
2020/12/14 08:26:24;;;;;;;38.72;5.47;;;9.70;99.90;;;;;;5053129;28;20067;-59
2020/12/14 08:28:57;;;;;;;41.08;5.53;;;9.70;99.90;;;;;;5055155;28;20029;-59
2020/12/14 08:31:23;;;;;;;33.05;4.57;;;9.70;99.90;;;;;;5054234;28;20082;-61
2020/12/14 08:33:53;;;;;;;37.08;5.85;;;9.70;99.90;;;;;;5065504;28;20032;-59
2020/12/14 08:36:20;;;;;;;52.25;5.65;;;9.70;99.90;;;;;;5060501;28;20028;-58
2020/12/14 08:38:48;;;;;;;42.58;6.40;;;9.70;99.90;;;;;;5064444;28;20130;-60
2020/12/14 08:41:23;;;;;;;36.67;5.75;;;9.60;99.90;;;;;;5061582;28;20445;-60
2020/12/14 08:43:53;;;;;;;41.50;5.82;;;9.60;99.90;;;;;;5055253;28;20028;-60
2020/12/14 08:46:21;;;;;;;36.40;5.53;;;9.70;99.90;;;;;;5063551;28;20043;-60
2020/12/14 08:49:01;;;;;;;33.97;5.03;;;9.70;99.90;;;;;;5060068;28;20470;-61
2020/12/14 08:51:34;;;;;;;39.85;5.82;;;9.70;99.90;;;;;;5062349;28;20017;-59
2020/12/14 08:54:14;;;;;;;33.33;4.53;;;9.70;99.90;;;;;;5060927;28;20033;-58
2020/12/14 08:56:41;;;;;;;40.50;6.68;;;9.70;99.90;;;;;;5055414;28;20048;-60
2020/12/14 08:59:21;;;;;;;39.67;5.95;;;9.80;99.90;;;;;;5062539;28;20457;-59
2020/12/14 09:02:00;;;;;;;31.33;5.60;;;9.90;99.90;;;;;;5057387;28;20051;-60
2020/12/14 09:04:37;;;;;;;38.90;5.60;;;9.90;99.90;;;;;;5074820;28;20025;-61
2020/12/14 09:07:08;;;;;;;40.15;6.28;;;9.90;99.90;;;;;;5064797;28;20040;-60
2020/12/14 09:09:37;;;;;;;30.55;5.03;;;9.90;99.90;;;;;;5081111;28;20039;-60
2020/12/14 09:12:09;;;;;;;47.00;6.05;;;9.90;99.90;;;;;;5077543;28;20037;-61
2020/12/14 09:14:35;;;;;;;45.38;6.90;;;9.90;99.90;;;;;;5066526;28;20392;-59
2020/12/14 09:17:03;;;;;;;40.85;5.60;;;9.90;99.90;;;;;;5066420;28;20024;-60
2020/12/14 09:19:34;;;;;;;44.33;5.72;;;9.90;99.90;;;;;;5073908;28;20028;-59
2020/12/14 09:22:01;;;;;;;34.30;6.07;;;9.90;99.90;;;;;;5067682;28;20031;-60
2020/12/14 09:24:28;;;;;;;38.30;4.95;;;9.90;99.90;;;;;;5064204;28;20036;-59
2020/12/14 09:27:11;;;;;;;38.22;5.93;;;10.00;99.90;;;;;;5069918;28;20123;-60
2020/12/14 09:29:39;;;;;;;38.35;6.18;;;10.00;99.90;;;;;;5066669;28;20033;-59
2020/12/14 09:32:06;;;;;;;43.15;6.18;;;10.10;99.90;;;;;;5067543;28;20032;-60
2020/12/14 09:34:32;;;;;;;53.05;6.53;;;10.10;99.90;;;;;;5063866;28;20039;-58
2020/12/14 09:36:59;;;;;;;38.75;7.47;;;10.10;99.90;;;;;;5054860;28;20395;-61
2020/12/14 09:39:27;;;;;;;50.83;7.18;;;10.20;99.90;;;;;;5066436;28;20028;-58
2020/12/14 09:41:56;;;;;;;42.50;6.63;;;10.30;99.90;;;;;;5078757;28;20032;-59
2020/12/14 09:44:23;;;;;;;37.97;6.00;;;10.40;99.90;;;;;;5054154;28;20063;-59
2020/12/14 09:46:49;;;;;;;37.35;6.15;;;10.40;99.90;;;;;;5056357;28;20040;-58
2020/12/14 09:49:15;;;;;;;48.00;7.03;;;10.50;99.90;;;;;;5066841;28;20129;-59
2020/12/14 09:51:41;;;;;;;43.17;6.55;;;10.50;99.90;;;;;;5063435;28;20048;-61
2020/12/14 09:54:08;;;;;;;45.05;5.72;;;10.60;99.90;;;;;;5064092;28;20040;-59
2020/12/14 09:56:34;;;;;;;45.28;6.43;;;10.60;99.90;;;;;;5064713;28;20151;-61
2020/12/14 09:59:00;;;;;;;48.20;6.72;;;10.60;99.90;;;;;;5054068;28;20029;-60
2020/12/14 10:01:28;;;;;;;49.58;8.57;;;10.70;99.90;;;;;;5054076;28;20037;-60
2020/12/14 10:03:54;;;;;;;37.90;6.03;;;10.70;99.90;;;;;;5070828;28;20032;-63
2020/12/14 10:06:20;;;;;;;44.05;6.10;;;10.70;99.90;;;;;;5075595;28;20028;-59
2020/12/14 10:08:46;;;;;;;42.35;6.82;;;10.70;99.90;;;;;;5076380;28;20028;-61
2020/12/14 10:11:12;;;;;;;38.58;6.07;;;10.80;99.90;;;;;;5079661;28;20048;-59
2020/12/14 10:13:40;;;;;;;37.33;6.18;;;10.80;99.90;;;;;;5067358;28;20111;-59
2020/12/14 10:16:07;;;;;;;38.67;5.90;;;10.90;99.90;;;;;;5078668;28;20101;-61
2020/12/14 10:18:34;;;;;;;42.17;6.25;;;10.90;99.90;;;;;;5078683;28;20032;-62
2020/12/14 10:21:03;;;;;;;43.47;6.70;;;10.90;99.90;;;;;;5072856;28;20024;-61
2020/12/14 10:23:29;;;;;;;41.53;6.28;;;10.90;99.90;;;;;;5087085;28;20028;-60
2020/12/14 10:25:56;;;;;;;46.97;7.07;;;11.00;99.90;;;;;;5072188;28;20036;-61
2020/12/14 10:28:21;;;;;;;43.00;7.00;;;11.00;99.90;;;;;;5068637;28;20428;-62
2020/12/14 10:30:47;;;;;;;44.80;6.93;;;11.00;99.90;;;;;;5050716;28;20028;-60
2020/12/14 10:33:13;;;;;;;38.65;5.60;;;11.00;99.90;;;;;;5051498;28;20038;-60
2020/12/14 10:35:39;;;;;;;40.10;5.80;;;11.10;99.90;;;;;;5050387;28;20033;-62
2020/12/14 10:38:05;;;;;;;44.22;6.85;;;11.10;99.90;;;;;;5048794;28;20108;-60
2020/12/14 10:40:30;;;;;;;40.50;6.13;;;11.20;99.90;;;;;;5049391;28;20673;-62
2020/12/14 10:42:56;;;;;;;39.80;6.15;;;11.20;99.90;;;;;;5048824;28;20037;-61
2020/12/14 10:45:22;;;;;;;41.25;6.55;;;11.20;99.90;;;;;;5049877;28;20087;-61
2020/12/14 10:47:48;;;;;;;37.63;6.65;;;11.20;99.90;;;;;;5068908;28;20371;-60
2020/12/14 10:50:16;;;;;;;40.15;7.50;;;11.20;99.90;;;;;;5069363;28;20035;-61
2020/12/14 10:52:42;;;;;;;43.65;6.28;;;11.30;99.90;;;;;;5068684;28;20075;-61
2020/12/14 10:55:08;;;;;;;41.42;6.70;;;11.30;99.90;;;;;;5070940;28;20040;-61
2020/12/14 10:57:34;;;;;;;40.28;6.90;;;11.30;99.90;;;;;;5070133;28;20435;-59
2020/12/14 11:00:10;;;;;;;36.47;6.45;;;11.30;99.90;;;;;;5070964;28;20163;-60
2020/12/14 11:02:40;;;;;;;41.55;6.85;;;11.30;99.90;;;;;;5069265;28;20064;-62
2020/12/14 11:05:09;;;;;;;39.13;6.68;;;11.30;99.90;;;;;;5071012;28;20085;-61
2020/12/14 11:07:36;;;;;;;42.70;6.32;;;11.40;99.90;;;;;;5069937;28;20033;-61
2020/12/14 11:10:04;;;;;;;39.33;6.93;;;11.40;99.90;;;;;;5070857;28;20112;-62
2020/12/14 11:12:30;;;;;;;44.53;6.53;;;11.50;99.90;;;;;;5070412;28;20481;-60
2020/12/14 11:14:56;;;;;;;41.00;5.82;;;11.50;99.90;;;;;;5071118;28;20115;-61
2020/12/14 11:17:21;;;;;;;40.92;6.75;;;11.50;99.90;;;;;;5070459;28;20095;-61
2020/12/14 11:19:47;;;;;;;37.13;6.10;;;11.60;99.90;;;;;;5070122;28;20382;-59
2020/12/14 11:22:13;;;;;;;39.80;6.68;;;11.60;99.90;;;;;;5070067;28;20047;-60
2020/12/14 11:24:39;;;;;;;31.90;5.85;;;11.60;99.90;;;;;;5070774;28;20020;-59
2020/12/14 11:27:05;;;;;;;34.17;5.38;;;11.60;99.90;;;;;;5070415;28;20036;-60
2020/12/14 11:29:31;;;;;;;27.73;5.00;;;11.70;99.90;;;;;;5071076;28;20107;-60
2020/12/14 11:31:57;;;;;;;34.58;5.78;;;11.70;99.90;;;;;;5070022;28;20029;-61
2020/12/14 11:34:23;;;;;;;41.13;6.00;;;11.70;99.90;;;;;;5070968;28;20036;-61
2020/12/14 11:36:49;;;;;;;41.40;6.40;;;11.70;99.90;;;;;;5068975;28;20043;-60
2020/12/14 11:39:15;;;;;;;34.50;5.70;;;11.70;99.90;;;;;;5052853;28;20052;-60
2020/12/14 11:41:44;;;;;;;41.47;5.70;;;11.60;99.90;;;;;;5049961;28;20053;-60
2020/12/14 11:44:10;;;;;;;39.97;5.95;;;11.70;99.90;;;;;;5050703;28;20044;-60
2020/12/14 11:46:35;;;;;;;41.70;6.55;;;11.70;99.90;;;;;;5049800;28;20037;-60
2020/12/14 11:49:01;;;;;;;31.75;5.70;;;11.70;99.90;;;;;;5051337;28;20040;-62
2020/12/14 11:51:27;;;;;;;47.60;7.20;;;11.70;99.90;;;;;;5053317;28;20039;-61
2020/12/14 11:53:52;;;;;;;36.13;6.15;;;11.70;99.90;;;;;;5064872;28;20465;-61
2020/12/14 11:56:18;;;;;;;40.78;6.28;;;11.80;99.90;;;;;;5073510;28;20103;-59
2020/12/14 11:58:44;;;;;;;38.65;5.82;;;11.80;99.90;;;;;;5074220;28;20393;-60
2020/12/14 12:01:09;;;;;;;32.85;5.97;;;11.90;99.90;;;;;;5073442;28;20029;-60
2020/12/14 12:03:35;;;;;;;40.97;5.85;;;12.00;99.90;;;;;;5073783;28;20033;-60
2020/12/14 12:06:01;;;;;;;41.20;7.25;;;12.10;99.90;;;;;;5073781;28;20033;-61
2020/12/14 12:08:27;;;;;;;41.13;6.20;;;12.10;99.90;;;;;;5071557;28;20063;-61
2020/12/14 12:10:53;;;;;;;35.95;6.15;;;12.10;99.90;;;;;;5073018;28;20803;-60
2020/12/14 12:13:19;;;;;;;43.45;5.82;;;12.10;99.90;;;;;;5071783;28;20397;-61
2020/12/14 12:15:45;;;;;;;27.52;5.15;;;12.10;99.90;;;;;;5074282;28;20028;-61
2020/12/14 12:18:10;;;;;;;37.08;5.80;;;12.10;99.90;;;;;;5073168;28;20112;-61
2020/12/14 12:20:36;;;;;;;32.90;5.72;;;12.20;99.90;;;;;;5073738;28;20111;-60
2020/12/14 12:23:03;;;;;;;30.02;5.28;;;12.20;99.90;;;;;;5073100;28;20060;-61
2020/12/14 12:25:29;;;;;;;26.17;5.38;;;12.10;99.90;;;;;;5073584;28;20037;-61
2020/12/14 12:27:55;;;;;;;33.30;5.57;;;12.20;99.90;;;;;;5071975;28;20036;-61
2020/12/14 12:30:20;;;;;;;32.20;5.63;;;12.20;99.90;;;;;;5073565;28;20021;-60
2020/12/14 12:32:46;;;;;;;34.38;6.53;;;12.10;99.90;;;;;;5072718;28;20061;-60
2020/12/14 12:35:12;;;;;;;31.92;5.95;;;12.10;99.90;;;;;;5073766;28;20070;-59
2020/12/14 12:37:38;;;;;;;22.85;4.93;;;12.10;99.90;;;;;;5072746;28;20066;-60
2020/12/14 12:40:07;;;;;;;30.83;5.18;;;12.10;99.90;;;;;;5073085;28;20024;-60
2020/12/14 12:42:34;;;;;;;23.83;4.95;;;12.10;99.90;;;;;;5072902;28;20489;-61